Airfield :
LOGIN :

Register | Disclaimer

   EN    FR    IT 

 










Legend :    VFR   Marginal VFR   IFR   Intensive IFR   Very Intensive IFR
Visi :
Ceiling :
>= 8 km
>= 3000ft
5 to 8 km
1000 to 3000 ft
1500m to 5 km
500 to 1000 ft
800 to 1500m
200 to 500 ft
< 800m
< 200 ft
Symbols :   Thunderstorms  Fog  Heavy snow  Heavy precipitations  Wind > 20 kt
SIGMETs :     Misc.  Thunderstorms  Icing  Turbulence  Mountain Waves  Volcanic Ashes






- Airport Elevation : 1249 ft


ETSN - Neuburg AB

CURRENT METAR :
  • 192220Z 05001KT 9999 BKN032 04/03 Q1018 BLU

EXPIRED METARs :
  • 192120Z 22001KT 9999 BKN025 04/03 Q1018 BLU
  • 192020Z 05001KT 9999 BKN022 BKN090 04/02 Q1017 WHT

TAF TAF ETSN
Valid from the 19 at 21:00 until the 20 at 06:00 UTC


192005Z 1921/2006 VRB03KT 9999 NSW FEW020 BKN080
TEMPO 1921/2006 34005KT 7000 -RA BKN015 BKN040 BY ETGL



MET'MAP, your aeronautical weather chart ! - Copyright ORBIFLY December 2007 - Disclaimer

ORBIFLY MET'MAP TEAM :

Programming & Development : Alexandra Zaïnal
Concept & Development : Baudouin d'Aumeries
Co-Development & Prog : Marc-Olivier Méhu
Technical & hardware support : Manuel Goepfert

Contact : metmap@orbifly.com




SOURCES & CREDITS :

   NOAA